Smithboro, Illinois
Current Conditions -  °F | °C
As of 1:35 AM on Thursday 23 Oct 2014 (Local Time) from K3LF Reporting Station
Clear Clear  
Wind Chill: 38°   Ceiling: Unl
Heat Index: 42°   Visibility: 10mi
Dew Point: 37°   Wind: 6mph
Humidity: 82%   Direction: 120°ESE
Pressure: 30.22"   Gusts: NA
Location:  38.9°N, 89.34°W
Report Text: K3LF 230635Z AUTO 12005KT 10SM CLR 05/03 A3022 RMK AO2 T00540025
Loading
Personal Weather Stations






























Interactive Weather Map
Tropical Storm Tracking
New forecast layout! Learn more

10-Day Weather Forecast

Advertisements
Track Severe Weather on mobile